Time;durP1;ratioP1;P1;durP2;ratioP2;P2;SDS_P1;SDS_P2;PMS_P1;PMS_P2;Temp;Humidity;BMP_temperature;BMP_pressure;BME280_temperature;BME280_humidity;BME280_pressure;Samples;Min_cycle;Max_cycle;Signal;HPM_P1;HPM_P2
2022/08/16 00:00:16;;;;;;;14.15;10.88;;;19.60;99.90;;;;;;5052760;28;20669;-66
2022/08/16 00:02:43;;;;;;;15.45;11.57;;;19.60;99.90;;;;;;5053295;28;20219;-67
2022/08/16 00:05:13;;;;;;;13.90;10.90;;;19.50;99.90;;;;;;5053456;28;20196;-66
2022/08/16 00:07:41;;;;;;;13.43;10.73;;;19.50;99.90;;;;;;5053515;28;20210;-66
2022/08/16 00:10:11;;;;;;;13.55;10.30;;;19.60;99.90;;;;;;5053301;28;20203;-66
2022/08/16 00:12:40;;;;;;;13.23;10.45;;;19.50;99.90;;;;;;5053102;28;20206;-66
2022/08/16 00:15:12;;;;;;;13.07;10.57;;;19.50;99.90;;;;;;5052336;28;20206;-66
2022/08/16 00:17:39;;;;;;;14.65;10.52;;;19.50;99.90;;;;;;5053433;28;20203;-68
2022/08/16 00:20:08;;;;;;;12.00;10.23;;;19.50;99.90;;;;;;5052801;28;20206;-68
2022/08/16 00:22:38;;;;;;;14.95;10.05;;;19.30;99.90;;;;;;5052941;28;20222;-68
2022/08/16 00:25:06;;;;;;;12.48;9.40;;;19.40;99.90;;;;;;5052589;28;20203;-66
2022/08/16 00:27:33;;;;;;;12.93;10.07;;;19.40;99.90;;;;;;5052789;28;20202;-65
2022/08/16 00:30:01;;;;;;;12.85;10.40;;;19.50;99.90;;;;;;5052888;28;20308;-66
2022/08/16 00:32:28;;;;;;;13.93;10.18;;;19.40;99.90;;;;;;5046747;28;20199;-66
2022/08/16 00:34:55;;;;;;;13.85;10.57;;;19.40;99.90;;;;;;5050050;28;20210;-66
2022/08/16 00:37:23;;;;;;;16.40;10.48;;;19.40;99.90;;;;;;5052609;28;20202;-66
2022/08/16 00:39:52;;;;;;;14.48;9.63;;;19.40;99.90;;;;;;5051146;28;20202;-66
2022/08/16 00:42:19;;;;;;;14.00;10.32;;;19.30;99.90;;;;;;5038303;28;20211;-66
2022/08/16 00:44:52;;;;;;;14.60;10.35;;;19.40;99.90;;;;;;5052960;28;20207;-66
2022/08/16 00:47:19;;;;;;;11.68;9.60;;;19.30;99.90;;;;;;5053161;28;20213;-66
2022/08/16 00:49:46;;;;;;;16.40;10.43;;;19.30;99.90;;;;;;5052476;28;20653;-66
2022/08/16 00:52:13;;;;;;;13.95;10.88;;;19.30;99.90;;;;;;5050935;28;20191;-66
2022/08/16 00:54:40;;;;;;;14.60;10.48;;;19.40;99.90;;;;;;5052778;28;20567;-66
2022/08/16 00:57:09;;;;;;;15.68;11.45;;;19.40;99.90;;;;;;5052664;28;20289;-66
2022/08/16 00:59:39;;;;;;;15.30;11.75;;;19.30;99.90;;;;;;5052603;28;20207;-66
2022/08/16 01:02:09;;;;;;;16.50;12.27;;;19.20;99.90;;;;;;5051486;28;20213;-66
2022/08/16 01:04:37;;;;;;;15.43;10.93;;;19.10;99.90;;;;;;5052432;28;20581;-66
2022/08/16 01:07:06;;;;;;;17.45;12.38;;;19.10;99.90;;;;;;5051828;28;20194;-66
2022/08/16 01:09:37;;;;;;;14.73;11.40;;;19.00;99.90;;;;;;5051452;28;20207;-66
2022/08/16 01:12:06;;;;;;;14.88;11.40;;;19.10;99.90;;;;;;5052084;28;20615;-65
2022/08/16 01:14:39;;;;;;;15.32;11.82;;;19.10;99.90;;;;;;5052444;28;20256;-66
2022/08/16 01:17:06;;;;;;;16.85;11.75;;;19.00;99.90;;;;;;5051896;28;20408;-65
2022/08/16 01:19:36;;;;;;;16.65;11.93;;;18.90;99.90;;;;;;5052358;28;20207;-66
2022/08/16 01:22:08;;;;;;;16.08;11.70;;;18.90;99.90;;;;;;5050703;28;20203;-66
2022/08/16 01:24:40;;;;;;;16.08;11.10;;;18.80;99.90;;;;;;5051918;28;20203;-66
2022/08/16 01:27:11;;;;;;;16.33;11.98;;;18.80;99.90;;;;;;5051890;28;20202;-66
2022/08/16 01:29:43;;;;;;;17.05;12.32;;;18.80;99.90;;;;;;5050840;28;20650;-66
2022/08/16 01:32:09;;;;;;;16.50;11.80;;;18.80;99.90;;;;;;5051993;28;20195;-66
2022/08/16 01:34:36;;;;;;;17.00;12.38;;;18.90;99.90;;;;;;5050657;28;20210;-66
2022/08/16 01:37:08;;;;;;;16.02;12.40;;;19.00;99.90;;;;;;5050997;28;20226;-66
2022/08/16 01:39:37;;;;;;;16.17;12.38;;;19.00;99.90;;;;;;5059931;28;20645;-68
2022/08/16 01:42:06;;;;;;;16.38;12.07;;;19.00;99.90;;;;;;5059725;28;20200;-66
2022/08/16 01:44:33;;;;;;;17.92;13.35;;;19.00;99.90;;;;;;5051740;28;20260;-66
2022/08/16 01:47:00;;;;;;;16.80;12.43;;;18.90;99.90;;;;;;5052147;28;20676;-66
2022/08/16 01:49:31;;;;;;;15.30;11.77;;;19.00;99.90;;;;;;5051764;28;20213;-66
2022/08/16 01:52:00;;;;;;;18.08;13.27;;;19.10;99.90;;;;;;5051039;28;20199;-66
2022/08/16 01:54:28;;;;;;;16.63;12.85;;;19.00;99.90;;;;;;5050913;28;20687;-66
2022/08/16 01:56:57;;;;;;;16.80;12.60;;;18.90;99.90;;;;;;5051605;28;20191;-66
2022/08/16 01:59:24;;;;;;;16.23;13.07;;;18.80;99.90;;;;;;5051019;28;20207;-66
2022/08/16 02:01:53;;;;;;;16.35;12.73;;;18.90;99.90;;;;;;5051465;28;20195;-66
2022/08/16 02:04:21;;;;;;;15.75;11.95;;;18.70;99.90;;;;;;5050643;28;20269;-66
2022/08/16 02:06:48;;;;;;;18.65;12.40;;;18.90;99.90;;;;;;5049639;28;20203;-66
2022/08/16 02:09:15;;;;;;;18.63;12.70;;;18.80;99.90;;;;;;5051693;28;20674;-66
2022/08/16 02:11:45;;;;;;;17.55;12.35;;;18.80;99.90;;;;;;5049568;28;20221;-66
2022/08/16 02:14:14;;;;;;;19.67;13.32;;;18.80;99.90;;;;;;5051479;28;20646;-66
2022/08/16 02:16:43;;;;;;;15.25;11.30;;;18.80;99.90;;;;;;5051647;28;20653;-66
2022/08/16 02:19:10;;;;;;;17.08;13.02;;;18.70;99.90;;;;;;5051517;28;20249;-66
2022/08/16 02:21:37;;;;;;;16.92;12.23;;;18.60;99.90;;;;;;5050960;28;20203;-66
2022/08/16 02:24:05;;;;;;;17.15;13.10;;;18.60;99.90;;;;;;5035187;28;20309;-66
2022/08/16 02:26:32;;;;;;;18.00;12.77;;;18.70;99.90;;;;;;5051329;28;20199;-66
2022/08/16 02:28:59;;;;;;;15.20;11.82;;;18.60;99.90;;;;;;5051432;28;20641;-66
2022/08/16 02:31:27;;;;;;;19.25;12.40;;;18.70;99.90;;;;;;5050639;28;20203;-66
2022/08/16 02:33:54;;;;;;;18.42;12.38;;;18.70;99.90;;;;;;5034548;28;20195;-66
2022/08/16 02:36:21;;;;;;;14.57;11.07;;;18.60;99.90;;;;;;5032888;28;20203;-66
2022/08/16 02:38:47;;;;;;;16.90;12.50;;;18.50;99.90;;;;;;5049293;28;20242;-66
2022/08/16 02:41:14;;;;;;;16.35;11.45;;;18.40;99.90;;;;;;5051487;28;20195;-65
2022/08/16 02:43:41;;;;;;;16.77;11.93;;;18.40;99.90;;;;;;5051179;28;20223;-66
2022/08/16 02:46:09;;;;;;;15.55;11.93;;;18.40;99.90;;;;;;5051529;28;20625;-66
2022/08/16 02:48:39;;;;;;;17.38;12.60;;;18.30;99.90;;;;;;5055248;28;20207;-66
2022/08/16 02:51:09;;;;;;;16.65;12.48;;;18.20;99.90;;;;;;5053151;28;20214;-66
2022/08/16 02:53:38;;;;;;;15.55;12.38;;;18.30;99.90;;;;;;5054000;28;20195;-66
2022/08/16 02:56:05;;;;;;;17.13;13.10;;;18.20;99.90;;;;;;5054686;28;20199;-66
2022/08/16 02:58:32;;;;;;;18.35;13.07;;;18.20;99.90;;;;;;5054590;28;20199;-66
2022/08/16 03:01:00;;;;;;;17.60;13.23;;;18.20;99.90;;;;;;5054526;28;20570;-66
2022/08/16 03:03:27;;;;;;;20.08;13.77;;;18.30;99.90;;;;;;5054706;28;20676;-69
2022/08/16 03:05:55;;;;;;;19.65;13.45;;;18.30;99.90;;;;;;5047363;28;20207;-69
2022/08/16 03:08:23;;;;;;;21.55;13.60;;;18.30;99.90;;;;;;5035102;28;20212;-69
2022/08/16 03:10:50;;;;;;;19.50;13.40;;;18.30;99.90;;;;;;5045877;28;20222;-69
2022/08/16 03:13:17;;;;;;;15.38;11.70;;;18.30;99.90;;;;;;5054585;28;20213;-69
2022/08/16 03:15:44;;;;;;;16.08;12.27;;;18.30;99.90;;;;;;5054356;28;20241;-70
2022/08/16 03:18:11;;;;;;;17.45;12.38;;;18.30;99.90;;;;;;5054568;28;20203;-70
2022/08/16 03:20:38;;;;;;;17.42;12.43;;;18.30;99.90;;;;;;5053766;28;20222;-69
2022/08/16 03:23:08;;;;;;;17.42;12.20;;;18.40;99.90;;;;;;5047726;28;20219;-69
2022/08/16 03:25:35;;;;;;;17.65;11.60;;;18.50;99.90;;;;;;5053690;28;20669;-69
2022/08/16 03:28:02;;;;;;;20.83;11.88;;;18.50;99.90;;;;;;5052820;28;20199;-69
2022/08/16 03:30:31;;;;;;;16.95;12.70;;;18.50;99.90;;;;;;5053782;28;20711;-69
2022/08/16 03:32:58;;;;;;;16.60;12.45;;;18.50;99.90;;;;;;5054187;28;20199;-68
2022/08/16 03:35:28;;;;;;;18.58;12.13;;;18.50;99.90;;;;;;5054002;28;20214;-68
2022/08/16 03:37:58;;;;;;;17.63;12.32;;;18.50;99.90;;;;;;5052307;28;20195;-69
2022/08/16 03:40:27;;;;;;;14.77;11.15;;;18.50;99.90;;;;;;5034150;28;20254;-69
2022/08/16 03:42:53;;;;;;;13.73;10.77;;;18.50;99.90;;;;;;5034030;28;20208;-69
2022/08/16 03:45:20;;;;;;;16.73;10.52;;;18.50;99.90;;;;;;5034367;28;20211;-70
2022/08/16 03:47:49;;;;;;;17.48;11.48;;;18.60;99.90;;;;;;5034286;28;20586;-69
2022/08/16 03:50:17;;;;;;;13.50;10.02;;;18.60;99.90;;;;;;5034156;28;20737;-69
2022/08/16 03:52:44;;;;;;;14.60;9.93;;;18.60;99.90;;;;;;5033467;28;20572;-69
2022/08/16 03:55:11;;;;;;;17.70;10.07;;;18.60;99.90;;;;;;5033029;28;20210;-69
2022/08/16 03:57:39;;;;;;;16.38;10.15;;;18.60;99.90;;;;;;5032879;28;20207;-70
2022/08/16 04:00:12;;;;;;;13.98;11.32;;;18.50;99.90;;;;;;5032838;28;20203;-69
2022/08/16 04:02:39;;;;;;;13.48;9.73;;;18.50;99.90;;;;;;5033738;28;20273;-69
2022/08/16 04:05:07;;;;;;;15.10;10.45;;;18.50;99.90;;;;;;5034019;28;20228;-69
2022/08/16 04:07:34;;;;;;;16.02;10.20;;;18.50;99.90;;;;;;5032412;28;20241;-70
2022/08/16 04:10:01;;;;;;;14.48;9.77;;;18.60;99.90;;;;;;5033563;28;20215;-69
2022/08/16 04:12:28;;;;;;;14.27;10.50;;;18.60;99.90;;;;;;5032482;28;20307;-69
2022/08/16 04:14:56;;;;;;;13.68;9.85;;;18.40;99.90;;;;;;5033519;28;20199;-69
2022/08/16 04:17:23;;;;;;;13.23;10.07;;;18.40;99.90;;;;;;5033574;28;20571;-69
2022/08/16 04:19:50;;;;;;;23.45;18.60;;;18.30;99.90;;;;;;5033308;28;20208;-69
2022/08/16 04:22:18;;;;;;;22.30;12.57;;;18.50;99.90;;;;;;5033371;28;20207;-69
2022/08/16 04:24:45;;;;;;;14.48;9.63;;;18.50;99.90;;;;;;5033036;28;20314;-69
2022/08/16 04:27:12;;;;;;;12.13;8.55;;;18.50;99.90;;;;;;5032996;28;20207;-69
2022/08/16 04:29:39;;;;;;;12.68;9.45;;;18.50;99.90;;;;;;5032322;28;20221;-69
2022/08/16 04:32:07;;;;;;;13.63;10.25;;;18.50;99.90;;;;;;5033240;28;20221;-69
2022/08/16 04:34:38;;;;;;;13.98;9.70;;;18.60;99.90;;;;;;5033215;28;20208;-70
2022/08/16 04:37:06;;;;;;;10.93;8.63;;;18.60;99.90;;;;;;5051856;28;20577;-69
2022/08/16 04:39:34;;;;;;;16.25;9.00;;;18.60;99.90;;;;;;5051880;28;20676;-69
2022/08/16 04:42:01;;;;;;;13.90;9.98;;;18.60;99.90;;;;;;5051210;28;20215;-70
2022/08/16 04:44:28;;;;;;;13.57;9.82;;;18.70;99.90;;;;;;5049884;28;20222;-69
2022/08/16 04:46:55;;;;;;;13.30;9.32;;;18.80;99.90;;;;;;5053043;28;20568;-69
2022/08/16 04:49:24;;;;;;;10.98;8.82;;;18.90;99.90;;;;;;5051056;28;20202;-69
2022/08/16 04:51:51;;;;;;;14.60;8.93;;;18.80;99.90;;;;;;5032614;28;20219;-70
2022/08/16 04:54:18;;;;;;;12.75;9.30;;;18.80;99.90;;;;;;5032980;28;20231;-70
2022/08/16 04:56:45;;;;;;;12.82;8.80;;;18.80;99.90;;;;;;5033082;28;20570;-69
2022/08/16 04:59:12;;;;;;;13.75;8.35;;;18.80;99.90;;;;;;5032939;28;20654;-69
2022/08/16 05:01:39;;;;;;;9.27;7.93;;;19.10;99.90;;;;;;5031488;28;20207;-70
2022/08/16 05:04:06;;;;;;;10.38;7.90;;;19.00;99.90;;;;;;5032716;28;20555;-69
2022/08/16 05:06:34;;;;;;;11.40;8.55;;;18.70;99.90;;;;;;5032573;28;20208;-69
2022/08/16 05:09:01;;;;;;;12.88;9.48;;;18.70;99.90;;;;;;5032328;28;20443;-69
2022/08/16 05:11:29;;;;;;;11.20;9.45;;;18.80;99.90;;;;;;5032217;28;20555;-69
2022/08/16 05:13:59;;;;;;;11.63;9.13;;;19.00;99.90;;;;;;5032686;28;20568;-69
2022/08/16 05:16:28;;;;;;;15.05;9.20;;;19.00;99.90;;;;;;5032544;28;20286;-69
2022/08/16 05:18:57;;;;;;;15.20;10.00;;;18.90;99.90;;;;;;5032311;28;20207;-69
2022/08/16 05:21:26;;;;;;;12.18;9.60;;;19.00;99.90;;;;;;5032042;28;20208;-69
2022/08/16 05:23:54;;;;;;;13.07;9.65;;;19.10;99.90;;;;;;5031727;28;20231;-69
2022/08/16 05:26:21;;;;;;;11.85;9.30;;;19.20;99.90;;;;;;5031882;28;20693;-70
2022/08/16 05:28:48;;;;;;;14.85;10.55;;;19.20;99.90;;;;;;5031656;28;20206;-69
2022/08/16 05:31:15;;;;;;;16.92;11.35;;;19.40;99.90;;;;;;5031843;28;20207;-70
2022/08/16 05:33:44;;;;;;;16.20;11.00;;;19.40;99.90;;;;;;5032270;28;20219;-69
2022/08/16 05:36:11;;;;;;;16.10;11.90;;;19.50;99.90;;;;;;5032206;28;20203;-69
2022/08/16 05:38:38;;;;;;;15.10;10.95;;;19.80;99.90;;;;;;5032262;28;20687;-69
2022/08/16 05:41:07;;;;;;;14.70;11.45;;;19.80;99.90;;;;;;5031901;28;20206;-69
2022/08/16 05:43:34;;;;;;;16.85;11.57;;;19.70;99.90;;;;;;5032118;28;20571;-70
2022/08/16 05:46:00;;;;;;;17.40;11.13;;;19.70;99.90;;;;;;5031935;28;20238;-69
2022/08/16 05:48:27;;;;;;;12.50;10.25;;;19.90;99.90;;;;;;5032368;28;20546;-69
2022/08/16 05:50:54;;;;;;;13.50;10.48;;;20.00;99.90;;;;;;5032000;28;20215;-71
2022/08/16 05:53:22;;;;;;;15.77;11.00;;;20.10;99.90;;;;;;5032207;28;20207;-69
2022/08/16 05:55:49;;;;;;;14.43;10.40;;;20.20;99.90;;;;;;5032065;28;20200;-70
2022/08/16 05:58:17;;;;;;;15.05;10.77;;;20.20;99.90;;;;;;5031887;28;20211;-69
2022/08/16 06:00:44;;;;;;;14.15;10.35;;;20.20;99.90;;;;;;5031658;28;20575;-69
2022/08/16 06:03:10;;;;;;;11.63;9.15;;;20.20;99.90;;;;;;5032131;28;20216;-69
2022/08/16 06:05:38;;;;;;;14.07;8.60;;;20.20;99.90;;;;;;5032123;28;20231;-70
2022/08/16 06:08:05;;;;;;;11.88;9.77;;;20.30;99.90;;;;;;5031938;28;20206;-69
2022/08/16 06:10:32;;;;;;;14.57;9.80;;;20.40;99.90;;;;;;5031760;28;20203;-70
2022/08/16 06:12:58;;;;;;;10.70;8.98;;;20.50;99.90;;;;;;5031684;28;20222;-70
2022/08/16 06:15:27;;;;;;;12.70;9.90;;;20.30;99.90;;;;;;5032184;28;20226;-70
2022/08/16 06:17:53;;;;;;;11.70;9.85;;;20.30;99.90;;;;;;5032046;28;20204;-70
2022/08/16 06:20:22;;;;;;;12.07;10.07;;;20.30;99.90;;;;;;5031142;28;20210;-70
2022/08/16 06:22:49;;;;;;;12.68;9.85;;;20.50;99.90;;;;;;5033448;28;20200;-70
2022/08/16 06:25:17;;;;;;;15.48;10.88;;;20.60;99.90;;;;;;5035853;28;20310;-70
2022/08/16 06:27:44;;;;;;;12.60;8.93;;;20.60;99.90;;;;;;5035377;28;20290;-71
2022/08/16 06:30:12;;;;;;;11.00;8.48;;;20.70;99.90;;;;;;5035605;28;20207;-70
2022/08/16 06:32:41;;;;;;;13.60;8.70;;;20.80;99.90;;;;;;5035521;28;20205;-70
2022/08/16 06:35:08;;;;;;;12.88;8.60;;;20.70;99.90;;;;;;5035703;28;20578;-70
2022/08/16 06:37:35;;;;;;;9.63;8.57;;;20.70;99.90;;;;;;5035475;28;20548;-70
2022/08/16 06:40:03;;;;;;;11.77;8.95;;;20.70;99.90;;;;;;5035065;28;20207;-71
2022/08/16 06:42:30;;;;;;;11.75;7.78;;;20.70;99.90;;;;;;5035513;28;20219;-70
2022/08/16 06:44:57;;;;;;;8.73;7.82;;;21.00;99.90;;;;;;5035362;28;20689;-70
2022/08/16 06:47:23;;;;;;;8.70;7.63;;;21.10;99.90;;;;;;5035388;28;20566;-70
2022/08/16 06:49:52;;;;;;;11.40;8.35;;;21.50;99.90;;;;;;5034917;28;20214;-70
2022/08/16 06:52:18;;;;;;;9.32;7.45;;;22.20;99.90;;;;;;5035234;28;20208;-70
2022/08/16 06:54:45;;;;;;;8.02;7.20;;;22.00;99.90;;;;;;5034710;28;20658;-71
2022/08/16 06:57:12;;;;;;;10.77;7.03;;;21.80;99.90;;;;;;5035247;28;20211;-71
2022/08/16 06:59:39;;;;;;;8.90;6.88;;;22.00;99.90;;;;;;5034550;28;20214;-70
2022/08/16 07:02:06;;;;;;;9.48;7.32;;;22.40;99.90;;;;;;5035046;28;20204;-70
2022/08/16 07:04:33;;;;;;;7.25;6.47;;;22.20;99.90;;;;;;5034917;28;20220;-70
2022/08/16 07:07:01;;;;;;;9.52;7.05;;;22.20;99.90;;;;;;5049552;28;20245;-70
2022/08/16 07:09:28;;;;;;;10.60;6.90;;;22.50;99.90;;;;;;5054057;28;20241;-70
2022/08/16 07:11:55;;;;;;;10.85;7.07;;;22.40;99.90;;;;;;5053391;28;20222;-70
2022/08/16 07:14:21;;;;;;;9.25;6.90;;;22.70;99.90;;;;;;5054863;28;20685;-71
2022/08/16 07:16:48;;;;;;;7.68;6.47;;;22.80;99.90;;;;;;5054619;28;20209;-70
2022/08/16 07:19:15;;;;;;;8.95;5.97;;;22.60;99.90;;;;;;5054065;28;20203;-70
2022/08/16 07:21:42;;;;;;;8.13;6.65;;;22.30;99.90;;;;;;5052541;28;20618;-71
2022/08/16 07:24:11;;;;;;;10.25;6.20;;;22.30;99.90;;;;;;5047986;28;20199;-71
2022/08/16 07:26:38;;;;;;;6.82;6.22;;;22.50;99.90;;;;;;5053395;28;20294;-70
2022/08/16 07:29:05;;;;;;;11.73;7.10;;;22.50;99.90;;;;;;5054292;28;20563;-70
2022/08/16 07:31:32;;;;;;;8.45;6.90;;;22.40;99.90;;;;;;5054207;28;20213;-70
2022/08/16 07:33:59;;;;;;;10.07;6.47;;;22.30;99.90;;;;;;5054753;28;20248;-70
2022/08/16 07:36:25;;;;;;;8.55;6.65;;;22.40;99.90;;;;;;5035246;28;20200;-70
2022/08/16 07:38:52;;;;;;;11.35;7.10;;;22.40;99.90;;;;;;5042873;28;20309;-70
2022/08/16 07:41:21;;;;;;;7.88;6.63;;;22.30;99.90;;;;;;5053585;28;20199;-71
2022/08/16 07:43:47;;;;;;;7.07;6.38;;;22.30;99.90;;;;;;5054395;28;20210;-71
2022/08/16 07:46:14;;;;;;;8.07;6.72;;;22.40;99.90;;;;;;5053887;28;20230;-71
2022/08/16 07:48:41;;;;;;;11.50;6.88;;;22.40;99.90;;;;;;5054035;28;20203;-71
2022/08/16 07:51:08;;;;;;;7.05;6.03;;;22.50;99.90;;;;;;5051906;28;20209;-71
2022/08/16 07:53:35;;;;;;;11.05;7.20;;;22.50;99.90;;;;;;5053613;28;20203;-71
2022/08/16 07:56:02;;;;;;;8.63;6.72;;;22.40;99.90;;;;;;5034000;28;20572;-71
2022/08/16 07:58:32;;;;;;;9.05;6.57;;;22.60;99.90;;;;;;5033151;28;20215;-70
2022/08/16 08:01:00;;;;;;;7.32;6.47;;;22.70;99.90;;;;;;5033690;28;20680;-71
2022/08/16 08:03:27;;;;;;;8.82;6.47;;;22.90;99.90;;;;;;5033659;28;20265;-70
2022/08/16 08:05:54;;;;;;;7.55;6.78;;;23.00;99.90;;;;;;5048450;28;20466;-72
2022/08/16 08:08:21;;;;;;;9.48;7.03;;;22.90;99.90;;;;;;5053600;28;20207;-71
2022/08/16 08:10:48;;;;;;;7.15;6.40;;;22.90;99.90;;;;;;5044958;28;20614;-71
2022/08/16 08:13:15;;;;;;;8.15;6.55;;;22.90;99.90;;;;;;5032400;28;20212;-66
2022/08/16 08:15:44;;;;;;;7.70;6.38;;;22.90;99.90;;;;;;5033375;28;20277;-66
2022/08/16 08:18:11;;;;;;;7.53;6.40;;;22.90;99.90;;;;;;5033756;28;20211;-66
2022/08/16 08:20:42;;;;;;;8.93;6.05;;;22.80;99.90;;;;;;5037609;28;20199;-66
2022/08/16 08:23:09;;;;;;;8.63;6.78;;;22.90;99.90;;;;;;5052057;28;20203;-66
2022/08/16 08:25:36;;;;;;;6.85;6.15;;;22.90;99.90;;;;;;5053329;28;20223;-66
2022/08/16 08:28:04;;;;;;;7.90;7.10;;;23.10;99.90;;;;;;5046905;28;20207;-67
2022/08/16 08:30:31;;;;;;;8.57;6.60;;;23.20;99.90;;;;;;5051701;28;20206;-66
2022/08/16 08:32:59;;;;;;;9.90;7.50;;;23.30;99.90;;;;;;5052924;28;20661;-66
2022/08/16 08:35:26;;;;;;;7.85;6.57;;;23.40;99.90;;;;;;5042613;28;20208;-66
2022/08/16 08:37:53;;;;;;;7.30;6.50;;;23.50;99.90;;;;;;5033291;28;20200;-66
2022/08/16 08:40:21;;;;;;;7.03;6.32;;;23.60;99.90;;;;;;5032559;28;20206;-66
2022/08/16 08:42:48;;;;;;;8.98;6.85;;;23.60;99.90;;;;;;5032174;28;20687;-66
2022/08/16 08:45:16;;;;;;;8.30;6.85;;;23.60;99.90;;;;;;5032303;28;20223;-66
2022/08/16 08:47:45;;;;;;;9.65;7.55;;;23.70;99.90;;;;;;5032604;28;20658;-67
2022/08/16 08:50:16;;;;;;;8.73;6.60;;;23.70;99.90;;;;;;5032814;28;20625;-66
2022/08/16 08:52:43;;;;;;;8.50;6.22;;;23.70;99.90;;;;;;5033078;28;20665;-66
2022/08/16 08:55:13;;;;;;;7.35;6.63;;;23.80;99.90;;;;;;5032219;28;20183;-66
2022/08/16 08:57:41;;;;;;;7.50;6.63;;;23.80;99.90;;;;;;5033073;28;20558;-67
2022/08/16 09:00:10;;;;;;;7.18;6.13;;;24.10;99.90;;;;;;5032261;28;20213;-67
2022/08/16 09:02:36;;;;;;;8.82;6.85;;;24.20;99.90;;;;;;5032777;28;20214;-67
2022/08/16 09:05:04;;;;;;;9.18;6.55;;;24.40;99.90;;;;;;5032696;28;20223;-67
2022/08/16 09:07:32;;;;;;;8.15;6.50;;;24.50;99.90;;;;;;5032632;28;20552;-66
2022/08/16 09:09:59;;;;;;;8.35;5.65;;;25.00;99.90;;;;;;5032292;28;20210;-66
2022/08/16 09:12:26;;;;;;;6.90;5.60;;;25.20;99.90;;;;;;5032200;28;20216;-67
2022/08/16 09:14:53;;;;;;;8.77;6.28;;;25.60;99.90;;;;;;5031818;28;20206;-67
2022/08/16 09:17:20;;;;;;;6.97;6.28;;;25.70;99.90;;;;;;5031850;28;20296;-67
2022/08/16 09:19:47;;;;;;;6.63;5.93;;;25.80;99.90;;;;;;5031634;28;20208;-67
2022/08/16 09:22:14;;;;;;;7.28;5.97;;;26.10;99.90;;;;;;5031208;28;20214;-67
2022/08/16 09:24:42;;;;;;;6.28;5.22;;;26.40;99.90;;;;;;5029979;28;20298;-67
2022/08/16 09:27:09;;;;;;;7.45;5.00;;;26.90;99.90;;;;;;5030462;28;20203;-67
2022/08/16 09:29:36;;;;;;;6.10;5.38;;;27.20;99.90;;;;;;5031678;28;20569;-67
2022/08/16 09:32:02;;;;;;;6.32;5.47;;;27.30;99.90;;;;;;5031647;28;20204;-67
2022/08/16 09:34:29;;;;;;;5.38;4.80;;;27.30;99.90;;;;;;5031765;28;20213;-67
2022/08/16 09:36:56;;;;;;;8.38;4.90;;;27.50;99.90;;;;;;5030998;28;20195;-67
2022/08/16 09:39:23;;;;;;;7.00;5.07;;;27.80;99.90;;;;;;5031139;28;20208;-67
2022/08/16 09:41:54;;;;;;;5.45;4.95;;;27.40;99.90;;;;;;5031402;28;20203;-67
2022/08/16 09:44:23;;;;;;;7.70;5.50;;;27.50;99.90;;;;;;5031515;28;20253;-67
2022/08/16 09:46:50;;;;;;;5.20;4.70;;;27.60;99.90;;;;;;5031478;28;20588;-67
2022/08/16 09:49:18;;;;;;;5.65;5.10;;;28.30;99.90;;;;;;5034803;28;20649;-67
2022/08/16 09:51:45;;;;;;;6.70;5.47;;;28.10;99.90;;;;;;5050784;28;20636;-67
2022/08/16 09:54:13;;;;;;;7.18;5.22;;;27.90;98.00;;;;;;5048797;28;20206;-67
2022/08/16 09:56:41;;;;;;;8.35;4.93;;;28.00;99.90;;;;;;5051760;28;20199;-67
2022/08/16 09:59:10;;;;;;;6.60;4.95;;;28.40;93.80;;;;;;5054819;28;20210;-67
2022/08/16 10:01:37;;;;;;;6.10;5.03;;;28.00;93.60;;;;;;5054657;28;20587;-67
2022/08/16 10:04:05;;;;;;;6.22;4.93;;;28.30;93.80;;;;;;5054567;28;20661;-67
2022/08/16 10:06:32;;;;;;;6.65;5.18;;;28.60;97.40;;;;;;5054166;28;20231;-67
2022/08/16 10:08:59;;;;;;;7.55;5.00;;;28.80;91.40;;;;;;5047409;28;20211;-67
2022/08/16 10:14:12;;;;;;;6.35;4.80;;;29.00;71.40;;;;;;5036050;28;20237;-67
2022/08/16 10:16:39;;;;;;;7.90;4.90;;;29.00;80.40;;;;;;5035847;28;20200;-67
2022/08/16 10:19:06;;;;;;;5.20;4.70;;;28.90;71.00;;;;;;5035503;28;20203;-67
2022/08/16 10:21:33;;;;;;;6.50;5.05;;;28.70;72.40;;;;;;5035646;28;20207;-67
2022/08/16 10:24:00;;;;;;;5.38;4.90;;;28.90;72.50;;;;;;5035575;28;20207;-67
2022/08/16 10:26:28;;;;;;;5.30;4.80;;;28.80;71.60;;;;;;5035594;28;20223;-67
2022/08/16 10:28:55;;;;;;;7.28;4.78;;;29.70;65.00;;;;;;5035143;28;20294;-67
2022/08/16 10:31:23;;;;;;;5.68;4.93;;;29.00;62.50;;;;;;5035782;28;20207;-67
2022/08/16 10:33:50;;;;;;;4.90;4.40;;;28.90;70.60;;;;;;5035686;28;20643;-67
2022/08/16 10:36:16;;;;;;;5.82;5.15;;;29.30;64.60;;;;;;5035684;28;20294;-71
2022/08/16 10:38:43;;;;;;;8.30;5.25;;;29.60;63.90;;;;;;5035184;28;20215;-71
2022/08/16 10:41:11;;;;;;;7.55;4.80;;;29.70;61.00;;;;;;5035403;28;20204;-71
2022/08/16 10:43:40;;;;;;;4.50;4.20;;;29.90;58.60;;;;;;5035177;28;20204;-71
2022/08/16 10:46:10;;;;;;;8.57;4.80;;;30.00;55.10;;;;;;5035264;28;20229;-71
2022/08/16 10:48:39;;;;;;;8.18;4.60;;;29.70;48.60;;;;;;5035463;28;20207;-71
2022/08/16 10:51:06;;;;;;;6.63;4.65;;;30.20;56.10;;;;;;5035182;28;20251;-71
2022/08/16 10:53:35;;;;;;;4.88;4.38;;;30.30;54.40;;;;;;5035153;28;20199;-71
2022/08/16 10:56:04;;;;;;;6.10;4.50;;;30.60;50.00;;;;;;5034862;28;20211;-71
2022/08/16 10:58:33;;;;;;;5.20;4.57;;;30.40;50.70;;;;;;5034397;28;20238;-71
2022/08/16 11:01:01;;;;;;;5.75;4.70;;;29.70;43.10;;;;;;5035072;28;20200;-71
2022/08/16 11:03:28;;;;;;;4.80;4.40;;;30.00;54.60;;;;;;5035337;28;20557;-71
2022/08/16 11:05:56;;;;;;;4.28;3.88;;;30.30;47.30;;;;;;5040598;28;20283;-71
2022/08/16 11:08:23;;;;;;;6.05;4.68;;;30.30;48.70;;;;;;5054419;28;20203;-71
2022/08/16 11:10:50;;;;;;;5.68;4.60;;;30.30;45.30;;;;;;5051445;28;20225;-71
2022/08/16 11:13:19;;;;;;;5.05;4.18;;;30.20;48.60;;;;;;5045563;28;20560;-71
2022/08/16 11:15:46;;;;;;;5.38;4.85;;;30.30;39.20;;;;;;5035256;28;20607;-71
2022/08/16 11:18:13;;;;;;;7.72;4.80;;;30.20;48.20;;;;;;5035476;28;20975;-71
2022/08/16 11:20:43;;;;;;;8.05;4.30;;;30.00;43.00;;;;;;5035282;28;20215;-71
2022/08/16 11:23:11;;;;;;;6.57;4.00;;;30.40;37.60;;;;;;5035031;28;20203;-71
2022/08/16 11:25:38;;;;;;;4.82;3.97;;;30.30;34.70;;;;;;5035294;28;20577;-71
2022/08/16 11:28:06;;;;;;;4.18;3.78;;;30.40;35.70;;;;;;5035031;28;20215;-71
2022/08/16 11:30:35;;;;;;;4.63;4.10;;;30.60;37.30;;;;;;5035070;28;20226;-67
2022/08/16 11:33:01;;;;;;;4.63;4.07;;;30.00;33.20;;;;;;5035093;28;20204;-68
2022/08/16 11:35:31;;;;;;;5.30;3.92;;;30.20;35.80;;;;;;5034936;28;20215;-67
2022/08/16 11:38:00;;;;;;;5.80;3.95;;;30.10;32.10;;;;;;5034850;28;20307;-67
2022/08/16 11:40:31;;;;;;;5.90;4.15;;;30.00;29.90;;;;;;5034356;28;20211;-67
2022/08/16 11:42:58;;;;;;;4.57;4.18;;;30.40;29.80;;;;;;5035082;28;20654;-72
2022/08/16 11:45:25;;;;;;;3.88;3.58;;;30.80;27.30;;;;;;5034628;28;20249;-71
2022/08/16 11:47:53;;;;;;;4.80;3.40;;;30.80;21.70;;;;;;5034813;28;20558;-67
2022/08/16 11:50:21;;;;;;;4.72;3.95;;;30.60;19.30;;;;;;5034519;28;20204;-71
2022/08/16 11:52:48;;;;;;;5.68;3.53;;;30.50;24.10;;;;;;5034888;28;20242;-71
2022/08/16 11:55:14;;;;;;;4.53;3.83;;;31.40;23.20;;;;;;5034815;28;20558;-71
2022/08/16 11:57:43;;;;;;;4.38;3.80;;;31.00;24.60;;;;;;5034744;28;20522;-71
2022/08/16 12:00:13;;;;;;;3.75;3.42;;;31.20;23.50;;;;;;5033987;28;20210;-71
2022/08/16 12:02:40;;;;;;;3.78;3.45;;;30.80;23.60;;;;;;5034342;28;20673;-71
2022/08/16 12:05:10;;;;;;;4.28;3.83;;;31.20;27.70;;;;;;5034572;28;20215;-73
2022/08/16 12:07:37;;;;;;;4.65;4.18;;;31.50;23.90;;;;;;5034190;28;20589;-71
2022/08/16 12:10:07;;;;;;;5.07;3.83;;;31.00;21.80;;;;;;5034358;28;20200;-70
2022/08/16 12:12:34;;;;;;;4.35;4.05;;;31.10;27.10;;;;;;5034190;28;20211;-70
2022/08/16 12:15:02;;;;;;;4.70;3.92;;;30.90;21.40;;;;;;5034224;28;20210;-70
2022/08/16 12:17:30;;;;;;;5.47;4.47;;;31.00;24.40;;;;;;5034022;28;20195;-70
2022/08/16 12:19:58;;;;;;;6.70;4.28;;;30.70;27.90;;;;;;5033486;28;20214;-70
2022/08/16 12:22:25;;;;;;;4.93;4.35;;;31.00;29.30;;;;;;5039189;28;20195;-70
2022/08/16 12:24:52;;;;;;;4.32;3.92;;;31.10;29.10;;;;;;5053843;28;20669;-70
2022/08/16 12:27:19;;;;;;;4.63;4.18;;;31.40;26.60;;;;;;5053153;28;20219;-70
2022/08/16 12:29:46;;;;;;;4.80;4.00;;;31.20;22.70;;;;;;5053742;28;20207;-70
2022/08/16 12:32:14;;;;;;;4.13;3.80;;;31.20;25.20;;;;;;5053606;28;20183;-70
2022/08/16 12:34:41;;;;;;;4.40;4.10;;;31.20;28.70;;;;;;5049776;28;20211;-70
2022/08/16 12:37:08;;;;;;;6.93;4.20;;;31.00;25.30;;;;;;5033455;28;20200;-70
2022/08/16 12:39:36;;;;;;;4.70;4.30;;;31.10;29.50;;;;;;5041009;28;20561;-70
2022/08/16 12:42:02;;;;;;;4.88;4.35;;;31.20;27.20;;;;;;5053309;28;20202;-70